Imperial Eagle — V7TK5 — position and weather

sailwx.info

Track history (hours):
 
Tides and Currents Weather Stations Pressure Air Temp Water Temp Dewpoint Dewpoint Depression Visibility Wind Speed Wind Dir Waves Ship Positions

Imperial Eagle

Last reported at 2017-May-27 15:27 UTC. Time now 2017-May-27 15:47 UTC.
Position N 37°16' W 009°31'.

Length 190 m; draft 12.5 m.

Type: Cargo ship. MMSI: 256759020.

Date/timePositionNaut miles runAvg speedWind from/ knotsBaromVisibWave heightAir tempDewpointWater temp
2017-May-27 15:27N 37°16' W 009°31'1012.7
2017-May-27 14:39N 37°06' W 009°29'1213.0
2017-May-27 13:42N 36°54' W 009°25'512.5
2017-May-27 13:17N 36°49' W 009°22'1612.3
2017-May-27 11:59N 36°39' W 009°06'612.7
2017-May-27 11:30N 36°39' W 008°59'612.7
2017-May-27 11:00N 36°39' W 008°51'612.9
2017-May-27 10:30N 36°39' W 008°43'612.9
2017-May-27 10:00N 36°39' W 008°35'612.9
2017-May-27 09:30N 36°40' W 008°27'612.8
2017-May-27 09:00N 36°41' W 008°19'612.9
2017-May-27 08:30N 36°42' W 008°11'612.8
2017-May-27 08:00N 36°42' W 008°03'70 1.4
2017-May-25 04:45N 36°08' W 009°20'  
2017-May-22 15:54N 34°49' W 025°02'1712.6
2017-May-22 14:35N 34°47' W 025°22'112.4
2017-May-22 14:30N 34°47' W 025°23'  
Track history (hours):
 
Tides and Currents Weather Stations Pressure Air Temp Water Temp Dewpoint Dewpoint Depression Visibility Wind Speed Wind Dir Waves Ship Positions

Imperial Eagle

Last reported at 2017-May-27 15:27 UTC. Time now 2017-May-27 15:47 UTC.
Position N 37°16' W 009°31'.

Length 190 m; draft 12.5 m.

Type: Cargo ship. MMSI: 256759020.

Date/timePositionNaut miles runAvg speedWind from/ knotsBaromVisibWave heightAir tempDewpointWater temp
2017-May-27 15:27N 37°16' W 009°31'1012.7
2017-May-27 14:39N 37°06' W 009°29'1213.0
2017-May-27 13:42N 36°54' W 009°25'512.5
2017-May-27 13:17N 36°49' W 009°22'1612.3
2017-May-27 11:59N 36°39' W 009°06'612.7
2017-May-27 11:30N 36°39' W 008°59'612.7
2017-May-27 11:00N 36°39' W 008°51'612.9
2017-May-27 10:30N 36°39' W 008°43'612.9
2017-May-27 10:00N 36°39' W 008°35'612.9
2017-May-27 09:30N 36°40' W 008°27'612.8
2017-May-27 09:00N 36°41' W 008°19'612.9
2017-May-27 08:30N 36°42' W 008°11'612.8
2017-May-27 08:00N 36°42' W 008°03'70 1.4
2017-May-25 04:45N 36°08' W 009°20'  
2017-May-22 15:54N 34°49' W 025°02'1712.6
2017-May-22 14:35N 34°47' W 025°22'112.4
2017-May-22 14:30N 34°47' W 025°23'  

Dump ship's entire track history